Time,TemperatureF,DewpointF,PressureIn,WindDirection,WindDirectionDegrees,WindSpeedMPH,WindSpeedGustMPH,Humidity,HourlyPrecipIn,Conditions,Clouds,dailyrainin,SolarRadiationWatts/m^2,SoftwareType,DateUTC
2013-11-08 00:12:00,36.0,7.0,-100.00,NNW,337,0.0,0.0,29,0.00,,,0.00,0.000000,,2013-11-08 08:12:00,
2013-11-08 00:22:00,36.0,7.0,-100.00,NNW,337,0.0,0.0,29,0.00,,,0.00,0.000000,,2013-11-08 08:22:00,
2013-11-08 00:31:00,36.0,7.0,-100.00,NNW,337,0.0,0.0,29,0.00,,,0.00,0.000000,,2013-11-08 08:31:00,
2013-11-08 01:12:00,36.0,5.0,-100.00,North,2,0.0,0.0,27,0.00,,,0.00,0.000000,,2013-11-08 09:12:00,
2013-11-08 01:22:00,36.0,5.0,-100.00,North,2,0.0,0.0,27,0.00,,,0.00,0.000000,,2013-11-08 09:22:00,
2013-11-08 01:33:00,36.0,5.0,-100.00,North,2,0.0,0.0,27,0.00,,,0.00,0.000000,,2013-11-08 09:33:00,
2013-11-08 02:12:00,34.0,4.0,-100.00,North,358,0.0,0.0,27,0.00,,,0.00,0.000000,,2013-11-08 10:12:00,
2013-11-08 02:23:00,34.0,4.0,-100.00,North,358,0.0,0.0,27,0.00,,,0.00,0.000000,,2013-11-08 10:23:00,
2013-11-08 02:33:00,34.0,4.0,-100.00,North,358,0.0,0.0,27,0.00,,,0.00,0.000000,,2013-11-08 10:33:00,
2013-11-08 03:12:00,35.0,6.0,-100.00,North,351,0.0,0.0,29,0.00,,,0.00,0.000000,,2013-11-08 11:12:00,
2013-11-08 03:22:00,35.0,6.0,-100.00,North,351,0.0,0.0,29,0.00,,,0.00,0.000000,,2013-11-08 11:22:00,
2013-11-08 03:33:00,35.0,6.0,-100.00,North,351,0.0,0.0,29,0.00,,,0.00,0.000000,,2013-11-08 11:33:00,
2013-11-08 04:11:00,33.0,5.0,-100.00,NNW,327,0.0,0.0,30,0.00,,,0.00,0.000000,,2013-11-08 12:11:00,
2013-11-08 04:21:00,33.0,5.0,-100.00,NNW,327,0.0,0.0,30,0.00,,,0.00,0.000000,,2013-11-08 12:21:00,
2013-11-08 04:32:00,33.0,5.0,-100.00,NNW,327,0.0,0.0,30,0.00,,,0.00,0.000000,,2013-11-08 12:32:00,
2013-11-08 05:11:00,33.0,6.0,-100.00,NNW,342,0.0,0.0,32,0.00,,,0.00,0.000000,,2013-11-08 13:11:00,
2013-11-08 05:21:00,33.0,6.0,-100.00,NNW,342,0.0,0.0,32,0.00,,,0.00,0.000000,,2013-11-08 13:21:00,
2013-11-08 05:32:00,33.0,6.0,-100.00,NNW,342,0.0,0.0,32,0.00,,,0.00,0.000000,,2013-11-08 13:32:00,
2013-11-08 06:11:00,34.0,7.0,-100.00,NNW,347,0.0,0.0,31,0.00,,,0.00,0.000000,,2013-11-08 14:11:00,
2013-11-08 06:21:00,34.0,7.0,-100.00,NNW,347,0.0,0.0,31,0.00,,,0.00,0.000000,,2013-11-08 14:21:00,
2013-11-08 06:32:00,34.0,7.0,-100.00,NNW,347,0.0,0.0,31,0.00,,,0.00,0.000000,,2013-11-08 14:32:00,
2013-11-08 07:11:00,33.0,3.0,-100.00,NNW,336,0.0,0.0,27,0.00,,,-99.99,2.000000,,2013-11-08 15:11:00,
2013-11-08 07:22:00,33.0,3.0,-100.00,NNW,336,0.0,0.0,27,0.00,,,-99.99,2.000000,,2013-11-08 15:22:00,
2013-11-08 07:33:00,33.0,3.0,-100.00,NNW,336,0.0,0.0,27,0.00,,,-99.99,2.000000,,2013-11-08 15:33:00,
2013-11-08 08:13:00,48.0,11.0,-100.00,North,5,0.0,0.0,22,0.00,,,0.00,109.000000,,2013-11-08 16:13:00,
2013-11-08 08:23:00,48.0,11.0,-100.00,North,5,0.0,0.0,22,0.00,,,0.00,109.000000,,2013-11-08 16:23:00,
2013-11-08 08:33:00,48.0,11.0,-100.00,North,5,0.0,0.0,22,0.00,,,0.00,109.000000,,2013-11-08 16:33:00,
2013-11-08 15:12:00,63.0,1.0,-100.00,WSW,242,1.0,9.0,8,-99.99,,,0.00,528.000000,,2013-11-08 23:12:00,
2013-11-08 15:22:00,63.0,1.0,-100.00,WSW,242,1.0,9.0,8,-99.99,,,0.00,528.000000,,2013-11-08 23:22:00,
2013-11-08 15:34:00,63.0,1.0,-100.00,WSW,242,1.0,9.0,8,-99.99,,,0.00,528.000000,,2013-11-08 23:34:00,
2013-11-08 16:12:00,63.0,-2.0,-100.00,WSW,256,2.0,7.0,7,0.00,,,0.00,413.000000,,2013-11-09 00:12:00,
2013-11-08 16:21:00,63.0,-2.0,-100.00,WSW,256,2.0,7.0,7,0.00,,,0.00,413.000000,,2013-11-09 00:21:00,
2013-11-08 16:32:00,63.0,-2.0,-100.00,WSW,256,2.0,7.0,7,0.00,,,0.00,413.000000,,2013-11-09 00:32:00,
2013-11-08 17:11:00,53.0,4.0,-100.00,WSW,238,0.0,6.0,13,-99.99,,,0.00,45.000000,,2013-11-09 01:11:00,
2013-11-08 17:22:00,53.0,4.0,-100.00,WSW,238,0.0,6.0,13,-99.99,,,0.00,45.000000,,2013-11-09 01:22:00,
2013-11-08 17:32:00,53.0,4.0,-100.00,WSW,238,0.0,6.0,13,-99.99,,,0.00,45.000000,,2013-11-09 01:32:00,
2013-11-08 18:11:00,43.0,4.0,-100.00,North,0,0.0,3.0,19,0.00,,,0.00,2.000000,,2013-11-09 02:11:00,
2013-11-08 18:22:00,43.0,4.0,-100.00,North,0,0.0,3.0,19,0.00,,,0.00,2.000000,,2013-11-09 02:22:00,
2013-11-08 18:32:00,43.0,4.0,-100.00,North,0,0.0,3.0,19,0.00,,,0.00,2.000000,,2013-11-09 02:32:00,
2013-11-08 19:21:00,38.0,-2.0,-100.00,North,359,0.0,0.0,18,0.00,,,0.00,0.000000,,2013-11-09 03:21:00,
2013-11-08 19:34:00,38.0,-2.0,-100.00,North,359,0.0,0.0,18,0.00,,,0.00,0.000000,,2013-11-09 03:34:00,